Time;durP1;ratioP1;P1;durP2;ratioP2;P2;SDS_P1;SDS_P2;PMS_P1;PMS_P2;Temp;Humidity;BMP_temperature;BMP_pressure;BME280_temperature;BME280_humidity;BME280_pressure;Samples;Min_cycle;Max_cycle;Signal;HPM_P1;HPM_P2
2022/09/23 00:01:10;;;;;;;7.43;6.38;;;;;;;11.76;75.17;101529.47;3610175;39;20300;-64
2022/09/23 00:03:44;;;;;;;10.30;6.38;;;;;;;11.75;74.39;101533.13;3608663;39;20059;-64
2022/09/23 00:06:20;;;;;;;11.50;7.40;;;;;;;11.39;74.85;101474.97;3611641;39;20067;-64
2022/09/23 00:08:48;;;;;;;10.27;6.68;;;;;;;11.65;75.45;101526.53;3608009;39;20063;-63
2022/09/23 00:11:21;;;;;;;10.90;6.82;;;;;;;11.67;76.44;101529.13;3602986;39;20066;-65
2022/09/23 00:13:52;;;;;;;10.00;6.90;;;;;;;11.53;75.98;101502.97;3604752;39;20128;-65
2022/09/23 00:16:38;;;;;;;8.57;7.07;;;;;;;11.71;75.78;101531.56;3608613;39;20047;-64
2022/09/23 00:19:03;;;;;;;8.07;6.80;;;;;;;11.75;74.52;101521.50;3606540;39;20137;-64
2022/09/23 00:21:29;;;;;;;10.13;6.93;;;;;;;11.73;74.95;101524.25;3596905;39;20085;-64
2022/09/23 00:23:55;;;;;;;12.82;7.85;;;;;;;11.74;75.19;101523.31;3605604;39;20054;-64
2022/09/23 00:26:23;;;;;;;10.18;7.05;;;;;;;11.70;74.85;101519.03;3607199;39;20063;-64
2022/09/23 00:28:49;;;;;;;11.23;7.95;;;;;;;11.58;74.91;101503.59;3605890;39;20055;-64
2022/09/23 00:31:24;;;;;;;10.00;7.10;;;;;;;11.65;74.96;101510.38;3606381;39;20054;-64
2022/09/23 00:33:59;;;;;;;10.95;8.00;;;;;;;11.63;75.32;101509.56;3605966;39;20055;-64
2022/09/23 00:36:28;;;;;;;12.77;7.40;;;;;;;11.53;75.28;101489.50;3606330;39;20393;-65
2022/09/23 00:38:57;;;;;;;11.32;7.70;;;;;;;11.59;75.49;101508.88;3607536;39;20462;-63
2022/09/23 00:41:23;;;;;;;10.05;7.85;;;;;;;11.57;75.26;101501.81;3605462;39;20055;-65
2022/09/23 00:43:57;;;;;;;8.93;7.68;;;;;;;11.53;75.41;101509.22;3609481;39;20046;-64
2022/09/23 00:46:41;;;;;;;11.07;8.60;;;;;;;11.50;75.30;101505.81;3607095;39;20062;-64
2022/09/23 00:49:26;;;;;;;11.38;8.82;;;;;;;11.47;75.93;101497.91;3607878;39;20454;-64
2022/09/23 00:52:05;;;;;;;9.55;8.32;;;;;;;11.45;75.63;101502.50;3608568;39;20051;-64
2022/09/23 00:54:31;;;;;;;12.35;8.43;;;;;;;11.39;75.98;101499.22;3595282;39;20372;-64
2022/09/23 00:57:00;;;;;;;9.73;8.27;;;;;;;11.41;75.55;101500.94;3603607;39;20293;-64
2022/09/23 00:59:27;;;;;;;10.68;8.02;;;;;;;11.37;74.97;101501.09;3605655;39;20055;-64
2022/09/23 01:01:58;;;;;;;10.25;8.27;;;;;;;11.35;75.09;101491.38;3612553;39;20046;-63
2022/09/23 01:04:26;;;;;;;14.07;8.70;;;;;;;11.35;74.95;101494.94;3608163;39;20390;-63
2022/09/23 01:06:52;;;;;;;11.60;8.50;;;;;;;11.35;75.33;101494.94;3606104;39;20116;-65
2022/09/23 01:09:21;;;;;;;13.20;8.93;;;;;;;11.36;75.46;101493.13;3604834;39;20055;-64
2022/09/23 01:12:33;;;;;;;12.15;8.57;;;;;;;11.31;75.10;101487.09;3608315;39;20378;-65
2022/09/23 01:15:20;;;;;;;13.07;9.13;;;;;;;11.33;74.70;101490.59;3610731;39;20059;-65
2022/09/23 01:17:48;;;;;;;10.98;8.77;;;;;;;11.35;74.67;101496.75;3608851;39;20078;-64
2022/09/23 01:20:51;;;;;;;11.20;8.73;;;;;;;11.33;74.22;101491.47;3606542;39;20128;-62
2022/09/23 01:23:35;;;;;;;10.98;8.57;;;;;;;11.36;73.62;101488.59;3578364;40;20056;-65
2022/09/23 01:26:40;;;;;;;11.60;8.77;;;;;;;11.33;74.52;101479.84;3608920;39;20074;-64
2022/09/23 01:29:59;;;;;;;12.88;9.05;;;;;;;11.35;74.20;101485.97;3606162;39;20073;-65
2022/09/23 01:32:55;;;;;;;12.05;9.50;;;;;;;11.31;74.13;101490.66;3607913;39;20055;-64
2022/09/23 01:35:47;;;;;;;11.43;9.38;;;;;;;11.32;74.00;101484.34;3608099;39;20058;-63
2022/09/23 01:39:14;;;;;;;17.52;10.07;;;;;;;11.30;73.79;101482.69;3606655;39;20518;-64
2022/09/23 01:41:58;;;;;;;15.05;9.05;;;;;;;11.30;73.65;101477.31;3603088;39;20052;-64
2022/09/23 01:44:28;;;;;;;13.18;9.10;;;;;;;11.29;73.87;101481.81;3600806;39;20051;-65
2022/09/23 01:47:16;;;;;;;16.63;8.98;;;;;;;11.29;74.00;101480.94;3607133;39;20046;-63
2022/09/23 01:49:59;;;;;;;12.93;9.18;;;;;;;11.28;74.55;101480.06;3608117;39;20091;-63
2022/09/23 01:52:43;;;;;;;13.07;9.40;;;;;;;11.26;75.04;101475.72;3611177;39;20298;-63
2022/09/23 01:55:27;;;;;;;12.88;9.60;;;;;;;11.27;74.44;101478.34;3605524;39;20070;-65
2022/09/23 01:58:15;;;;;;;11.40;9.15;;;;;;;11.26;74.32;101476.63;3609202;39;20056;-65
2022/09/23 02:01:00;;;;;;;12.82;9.10;;;;;;;11.29;74.31;101478.25;3610756;39;20055;-64
2022/09/23 02:04:02;;;;;;;11.18;9.40;;;;;;;11.29;74.71;101476.44;3607322;39;20081;-63
2022/09/23 02:06:45;;;;;;;11.73;9.30;;;;;;;11.31;74.53;101474.53;3611239;39;20141;-63
2022/09/23 02:09:21;;;;;;;11.73;9.35;;;;;;;11.32;74.28;101470.00;3610951;39;20065;-64
2022/09/23 02:11:51;;;;;;;11.93;9.50;;;;;;;11.34;74.68;101473.50;3613082;39;20063;-64
2022/09/23 02:14:47;;;;;;;11.50;9.40;;;;;;;11.35;74.56;101470.72;3610315;39;20054;-64
2022/09/23 02:17:37;;;;;;;11.20;10.02;;;;;;;11.37;73.87;101466.09;3608544;39;20047;-64
2022/09/23 02:20:06;;;;;;;12.75;9.65;;;;;;;11.36;73.55;101456.31;3610273;39;20366;-64
2022/09/23 02:23:19;;;;;;;11.55;9.68;;;;;;;11.37;73.57;101463.41;3611125;39;20076;-64
2022/09/23 02:26:01;;;;;;;11.52;10.05;;;;;;;11.30;74.43;101456.63;3583104;39;20047;-65
2022/09/23 02:28:42;;;;;;;12.50;10.30;;;;;;;11.31;74.99;101458.38;3611129;39;20123;-64
2022/09/23 02:31:27;;;;;;;11.73;9.95;;;;;;;11.26;73.99;101449.69;3609523;39;20050;-64
2022/09/23 02:34:08;;;;;;;12.65;10.07;;;;;;;11.25;74.42;101447.94;3606980;39;20125;-65
2022/09/23 02:37:05;;;;;;;13.68;10.95;;;;;;;11.21;74.98;101446.38;3609367;39;20047;-64
2022/09/23 02:40:04;;;;;;;14.48;11.00;;;;;;;11.18;74.79;101435.78;3609127;39;20043;-64
2022/09/23 02:43:03;;;;;;;14.13;10.88;;;;;;;11.15;75.49;101439.50;3606943;39;20047;-64
2022/09/23 02:45:29;;;;;;;15.40;10.48;;;;;;;11.11;75.18;101427.16;3609990;39;20324;-63
2022/09/23 02:48:24;;;;;;;14.73;9.95;;;;;;;11.08;75.21;101431.84;3603332;39;20091;-64
2022/09/23 02:50:49;;;;;;;;;;;;;;;11.05;74.37;101426.63;3609897;39;20043;-64
2022/09/23 02:53:16;;;;;;;12.25;10.27;;;;;;;11.05;74.12;101429.34;3610501;39;19938;-64
2022/09/23 02:55:42;;;;;;;18.42;10.70;;;;;;;10.91;74.41;101412.13;3611080;39;20055;-64
2022/09/23 02:58:12;;;;;;;13.73;10.13;;;;;;;11.01;74.95;101425.06;3604624;39;20051;-63
2022/09/23 03:00:54;;;;;;;14.02;9.88;;;;;;;10.99;74.00;101429.66;3610669;39;20055;-64
2022/09/23 03:04:05;;;;;;;11.52;9.65;;;;;;;10.88;73.81;101406.03;3609753;39;20050;-64
2022/09/23 03:07:01;;;;;;;12.73;9.98;;;;;;;10.89;74.53;101418.53;3606197;39;20050;-63
2022/09/23 03:10:17;;;;;;;13.23;9.48;;;;;;;10.82;74.58;101415.31;3610084;39;20351;-64
2022/09/23 03:13:38;;;;;;;13.05;9.38;;;;;;;10.79;74.83;101415.47;3600600;39;20047;-63
2022/09/23 03:16:21;;;;;;;12.40;9.65;;;;;;;10.77;73.97;101408.41;3605036;39;20087;-64
2022/09/23 03:19:11;;;;;;;11.50;10.00;;;;;;;10.72;75.08;101413.16;3612031;39;20059;-65
2022/09/23 03:22:21;;;;;;;12.90;10.05;;;;;;;10.59;74.31;101392.34;3604228;39;20055;-65
2022/09/23 03:24:51;;;;;;;11.63;10.32;;;;;;;10.66;74.91;101406.31;3610517;39;20083;-64
2022/09/23 03:27:26;;;;;;;11.70;9.43;;;;;;;10.64;75.00;101409.06;3609767;39;20043;-64
2022/09/23 03:29:55;;;;;;;14.18;9.38;;;;;;;10.63;74.99;101403.78;3608207;39;20051;-64
2022/09/23 03:32:27;;;;;;;10.25;9.10;;;;;;;10.61;75.38;101406.53;3610010;39;20115;-64
2022/09/23 03:34:57;;;;;;;14.88;9.07;;;;;;;10.60;75.05;101406.63;3610611;39;20054;-64
2022/09/23 03:37:37;;;;;;;10.90;8.10;;;;;;;10.55;74.39;101396.09;3610849;39;20099;-64
2022/09/23 03:40:18;;;;;;;13.40;9.40;;;;;;;10.37;74.60;101371.09;3608452;39;20047;-64
2022/09/23 03:42:45;;;;;;;10.35;8.70;;;;;;;10.57;74.42;101406.78;3607050;39;20052;-64
2022/09/23 03:45:21;;;;;;;10.40;8.60;;;;;;;10.47;74.67;101386.72;3611029;39;20377;-62
2022/09/23 03:47:46;;;;;;;11.48;8.65;;;;;;;10.59;73.99;101400.41;3610271;39;20087;-64
2022/09/23 03:50:13;;;;;;;11.48;8.63;;;;;;;10.60;74.11;101401.25;3608876;39;20054;-64
2022/09/23 03:52:39;;;;;;;10.25;8.30;;;;;;;10.60;74.69;101396.75;3608390;39;20147;-65
2022/09/23 03:55:07;;;;;;;12.88;8.25;;;;;;;10.61;74.85;101400.31;3610200;39;20129;-64
2022/09/23 03:57:32;;;;;;;10.00;7.88;;;;;;;10.62;74.01;101388.59;3608662;39;20058;-64
2022/09/23 03:59:58;;;;;;;13.35;7.88;;;;;;;10.65;73.91;101399.19;3610078;39;21507;-64
2022/09/23 04:02:24;;;;;;;12.73;8.32;;;;;;;10.69;74.50;101398.09;3611515;39;20053;-64
2022/09/23 04:04:50;;;;;;;11.48;7.50;;;;;;;10.69;73.71;101392.72;3613196;39;20057;-64
2022/09/23 04:07:16;;;;;;;13.18;7.60;;;;;;;10.69;73.50;101393.56;3606276;39;20059;-64
2022/09/23 04:09:43;;;;;;;8.48;7.50;;;;;;;10.70;73.73;101391.75;3611707;39;20059;-64
2022/09/23 04:12:15;;;;;;;9.90;7.53;;;;;;;10.72;73.69;101392.53;3613144;39;20070;-64
2022/09/23 04:14:41;;;;;;;9.98;7.90;;;;;;;10.72;73.05;101383.59;3607146;39;20059;-63
2022/09/23 04:17:06;;;;;;;8.27;7.32;;;;;;;10.71;73.88;101393.47;3611970;39;20049;-64
2022/09/23 04:19:32;;;;;;;9.93;7.75;;;;;;;10.70;73.01;101386.38;3605990;39;20047;-64
2022/09/23 04:21:58;;;;;;;9.00;7.55;;;;;;;10.71;73.68;101395.31;3610519;39;20060;-64
2022/09/23 04:24:24;;;;;;;10.93;7.85;;;;;;;10.70;73.17;101391.75;3604818;39;20394;-64
2022/09/23 04:26:52;;;;;;;9.07;7.05;;;;;;;10.70;73.65;101391.75;3609808;39;20067;-64
2022/09/23 04:29:19;;;;;;;9.75;7.60;;;;;;;10.71;73.14;101390.78;3610576;39;20135;-63
2022/09/23 04:31:46;;;;;;;10.93;7.38;;;;;;;10.50;73.55;101359.66;3609742;39;20433;-64
2022/09/23 04:34:12;;;;;;;8.93;7.40;;;;;;;10.73;73.46;101388.91;3612402;39;20050;-64
2022/09/23 04:36:38;;;;;;;11.80;7.50;;;;;;;10.74;72.48;101390.63;3601057;39;20059;-63
2022/09/23 04:39:04;;;;;;;8.52;7.43;;;;;;;10.73;73.58;101388.91;3609372;39;20328;-64
2022/09/23 04:41:30;;;;;;;7.75;6.88;;;;;;;10.59;73.31;101361.88;3607930;39;20086;-65
2022/09/23 04:43:58;;;;;;;9.18;7.00;;;;;;;10.57;73.48;101353.03;3609922;39;20086;-64
2022/09/23 04:46:24;;;;;;;8.70;7.43;;;;;;;10.71;73.06;101379.16;3610542;39;20302;-63
2022/09/23 04:48:49;;;;;;;9.35;6.82;;;;;;;10.68;72.61;101383.75;3607135;39;20087;-64
2022/09/23 04:51:19;;;;;;;12.75;7.03;;;;;;;10.64;72.63;101384.00;3610423;39;20055;-64
2022/09/23 04:53:49;;;;;;;8.98;7.07;;;;;;;10.67;72.99;101376.63;3610960;39;20082;-64
2022/09/23 04:56:21;;;;;;;9.77;7.07;;;;;;;10.67;72.97;101381.16;3608394;39;20043;-64
2022/09/23 04:58:48;;;;;;;8.60;7.35;;;;;;;10.65;73.63;101380.34;3611076;39;20124;-65
2022/09/23 05:01:23;;;;;;;7.82;6.95;;;;;;;10.67;73.83;101378.47;3612657;39;20501;-63
2022/09/23 05:04:01;;;;;;;9.00;7.00;;;;;;;10.67;73.51;101367.72;3608627;39;20047;-64
2022/09/23 05:06:30;;;;;;;10.25;7.03;;;;;;;10.66;72.46;101369.53;3610313;39;20147;-63
2022/09/23 05:08:58;;;;;;;9.80;7.43;;;;;;;10.60;73.02;101358.25;3610665;39;20337;-64
2022/09/23 05:11:25;;;;;;;9.32;7.55;;;;;;;10.65;73.03;101373.16;3605120;39;20120;-63
2022/09/23 05:13:53;;;;;;;8.88;7.10;;;;;;;10.67;74.04;101370.41;3606096;39;20148;-64
2022/09/23 05:16:21;;;;;;;8.00;6.57;;;;;;;10.65;73.34;101370.47;3612953;39;20051;-64
2022/09/23 05:18:49;;;;;;;9.75;5.95;;;;;;;10.70;73.72;101370.25;3611415;39;20047;-64
2022/09/23 05:21:19;;;;;;;8.23;6.80;;;;;;;10.71;72.94;101380.03;3605066;39;20452;-63
2022/09/23 05:23:54;;;;;;;9.23;6.85;;;;;;;10.69;73.08;101379.25;3605835;39;20058;-63
2022/09/23 05:26:24;;;;;;;8.13;6.57;;;;;;;10.71;73.55;101377.34;3612377;39;20047;-64
2022/09/23 05:28:50;;;;;;;8.07;6.68;;;;;;;10.72;73.04;101380.91;3612240;39;20051;-63
2022/09/23 05:31:22;;;;;;;11.60;6.30;;;;;;;10.57;73.05;101353.03;3611223;39;20096;-64
2022/09/23 05:33:56;;;;;;;7.35;6.10;;;;;;;10.70;72.55;101381.00;3612150;39;20081;-65
2022/09/23 05:36:24;;;;;;;9.20;6.45;;;;;;;10.73;73.49;101380.84;3610962;39;20060;-64
2022/09/23 05:38:51;;;;;;;9.95;6.43;;;;;;;10.78;73.34;101380.56;3614537;39;20058;-64
2022/09/23 05:41:21;;;;;;;10.43;6.70;;;;;;;10.86;72.59;101397.19;3612250;39;20072;-63
2022/09/23 05:43:47;;;;;;;11.35;6.50;;;;;;;10.84;73.11;101383.78;3610196;39;20059;-63
2022/09/23 05:46:34;;;;;;;12.57;7.43;;;;;;;10.93;72.74;101387.81;3613297;39;20389;-63
2022/09/23 05:49:04;;;;;;;8.73;5.88;;;;;;;10.99;72.39;101392.00;3610420;39;20055;-63
2022/09/23 05:51:32;;;;;;;9.00;6.35;;;;;;;11.02;71.82;101395.38;3609651;39;20071;-64
2022/09/23 05:54:01;;;;;;;9.90;6.72;;;;;;;11.07;71.67;101395.16;3611740;39;20047;-64
2022/09/23 05:56:28;;;;;;;9.63;6.43;;;;;;;11.09;71.49;101395.91;3611342;39;20337;-65
2022/09/23 05:58:57;;;;;;;8.15;6.50;;;;;;;11.14;71.24;101404.63;3600346;39;20390;-65
2022/09/23 06:01:32;;;;;;;10.95;6.85;;;;;;;11.17;70.52;101406.28;3611607;39;20058;-64
2022/09/23 06:04:01;;;;;;;9.00;6.13;;;;;;;11.20;71.86;101400.72;3610097;39;20056;-64
2022/09/23 06:06:40;;;;;;;12.30;6.88;;;;;;;11.21;71.52;101403.31;3616036;39;20381;-64
2022/09/23 06:09:12;;;;;;;9.93;7.20;;;;;;;11.25;71.26;101390.56;3608959;39;20059;-64
2022/09/23 06:11:38;;;;;;;11.43;7.18;;;;;;;11.25;71.30;101386.03;3617882;39;20430;-63
2022/09/23 06:14:04;;;;;;;10.23;6.72;;;;;;;11.34;70.86;101392.75;3615926;39;20386;-64
2022/09/23 06:16:33;;;;;;;8.88;6.88;;;;;;;10.82;70.68;101298.78;3612620;39;20057;-64
2022/09/23 06:19:04;;;;;;;8.02;6.35;;;;;;;10.81;70.08;101297.03;3616086;39;20066;-65
2022/09/23 06:21:31;;;;;;;9.93;6.45;;;;;;;11.47;70.48;101387.53;3611457;39;20063;-64
2022/09/23 06:24:01;;;;;;;9.50;6.70;;;;;;;11.51;70.60;101384.59;3614081;39;20054;-64
2022/09/23 06:26:30;;;;;;;12.05;6.50;;;;;;;11.53;70.39;101381.81;3615319;39;20043;-64
2022/09/23 06:28:56;;;;;;;8.65;6.60;;;;;;;11.58;70.66;101385.13;3608345;39;20059;-64
2022/09/23 06:31:21;;;;;;;11.82;6.40;;;;;;;11.66;70.72;101381.97;3606132;39;20055;-65
2022/09/23 06:33:48;;;;;;;9.30;6.80;;;;;;;11.71;70.76;101385.28;3606239;39;20301;-64
2022/09/23 06:36:14;;;;;;;11.23;6.93;;;;;;;11.68;70.26;101375.53;3613336;39;20478;-64
2022/09/23 06:38:48;;;;;;;9.63;6.32;;;;;;;11.74;70.41;101385.97;3609016;39;20055;-64
2022/09/23 06:41:14;;;;;;;;;;;;;;;11.79;70.71;101378.47;3611480;39;20043;-64
2022/09/23 06:43:40;;;;;;;8.93;6.53;;;;;;;11.79;69.78;101373.06;3613889;39;19927;-64
2022/09/23 06:46:07;;;;;;;7.90;6.60;;;;;;;11.89;69.81;101383.34;3614751;39;20081;-65
2022/09/23 06:48:34;;;;;;;11.45;6.63;;;;;;;11.94;70.20;101378.56;3609742;39;20432;-64
2022/09/23 06:51:03;;;;;;;10.55;6.82;;;;;;;11.94;69.64;101382.13;3608648;39;20270;-64
2022/09/23 06:53:33;;;;;;;8.95;6.03;;;;;;;12.04;68.82;101374.38;3610426;39;20119;-63
2022/09/23 06:56:06;;;;;;;9.85;6.15;;;;;;;11.44;68.30;101266.56;3607475;39;20044;-64
2022/09/23 06:58:35;;;;;;;10.27;6.47;;;;;;;11.51;68.48;101281.41;3608047;39;20310;-63
2022/09/23 07:01:08;;;;;;;12.13;6.95;;;;;;;12.23;68.41;101393.88;3610795;39;20318;-64
2022/09/23 07:03:35;;;;;;;8.65;6.47;;;;;;;12.25;68.67;101386.56;3608577;39;20059;-63
2022/09/23 07:06:01;;;;;;;9.23;6.68;;;;;;;12.30;68.15;101381.78;3610451;39;20058;-64
2022/09/23 07:08:30;;;;;;;10.98;7.03;;;;;;;12.37;68.60;101384.97;3612757;39;20055;-65
2022/09/23 07:10:59;;;;;;;8.05;6.47;;;;;;;12.39;68.50;101387.56;3610390;39;20055;-64
2022/09/23 07:13:28;;;;;;;9.65;6.22;;;;;;;11.38;67.97;101204.06;3608521;39;20436;-63
2022/09/23 07:16:00;;;;;;;10.52;6.63;;;;;;;12.47;66.98;101374.50;3611038;39;20047;-64
2022/09/23 07:18:29;;;;;;;9.48;6.75;;;;;;;12.49;68.52;101367.16;3609943;39;20047;-64
2022/09/23 07:20:57;;;;;;;11.13;7.07;;;;;;;12.64;67.57;101374.31;3610870;39;20440;-64
2022/09/23 07:23:24;;;;;;;20.45;12.68;;;;;;;12.73;68.00;101376.44;3611285;39;20123;-63
2022/09/23 07:25:51;;;;;;;21.33;13.55;;;;;;;12.36;68.18;101296.94;3609684;39;20051;-65
2022/09/23 07:28:18;;;;;;;10.27;7.55;;;;;;;12.96;67.32;101382.25;3605587;39;20043;-64
2022/09/23 07:30:45;;;;;;;11.98;7.00;;;;;;;12.98;66.05;101375.78;3605968;39;20058;-65
2022/09/23 07:33:11;;;;;;;8.70;6.30;;;;;;;11.98;66.55;101195.06;3610610;39;20042;-65
2022/09/23 07:35:40;;;;;;;8.32;6.40;;;;;;;13.18;66.24;101384.44;3610387;39;20412;-64
2022/09/23 07:38:08;;;;;;;10.38;6.40;;;;;;;13.30;66.14;101385.53;3608640;39;20050;-64
2022/09/23 07:40:33;;;;;;;10.88;6.18;;;;;;;13.40;66.33;101387.53;3607234;39;20095;-64
2022/09/23 07:42:59;;;;;;;12.50;7.15;;;;;;;13.51;65.54;101384.16;3609038;39;20059;-64
2022/09/23 07:45:26;;;;;;;9.80;6.60;;;;;;;13.64;65.45;101376.97;3608351;39;20051;-65
2022/09/23 07:47:54;;;;;;;14.13;6.65;;;;;;;13.27;64.90;101286.69;3609376;39;20369;-64
2022/09/23 07:50:21;;;;;;;8.43;6.40;;;;;;;13.93;65.02;101375.03;3610828;39;20055;-65
2022/09/23 07:52:51;;;;;;;9.90;6.50;;;;;;;14.11;64.56;101383.75;3610967;39;20370;-64
2022/09/23 07:55:17;;;;;;;9.23;6.10;;;;;;;13.64;62.50;101282.41;3596421;39;20057;-64
2022/09/23 07:57:43;;;;;;;11.55;6.38;;;;;;;14.36;62.09;101380.19;3598194;39;20063;-65
2022/09/23 08:00:09;;;;;;;9.00;5.85;;;;;;;14.48;61.99;101385.75;3609712;39;20048;-65
2022/09/23 08:02:35;;;;;;;10.13;6.20;;;;;;;14.58;61.97;101382.31;3604409;39;20103;-65
2022/09/23 08:05:01;;;;;;;10.82;6.53;;;;;;;14.73;62.24;101382.22;3608274;39;20382;-64
2022/09/23 08:07:26;;;;;;;8.55;5.90;;;;;;;14.81;61.30;101379.84;3606808;39;20047;-65
2022/09/23 08:09:52;;;;;;;8.50;5.82;;;;;;;14.91;61.23;101377.38;3611170;39;20308;-64
2022/09/23 08:12:18;;;;;;;11.75;5.80;;;;;;;14.97;60.17;101390.44;3610196;39;20047;-65
2022/09/23 08:14:44;;;;;;;8.82;6.07;;;;;;;15.08;60.84;101390.53;3606715;39;20043;-65
2022/09/23 08:17:13;;;;;;;12.32;5.70;;;;;;;15.12;59.29;101392.06;3607134;39;20158;-64
2022/09/23 08:19:39;;;;;;;9.68;6.00;;;;;;;15.16;59.10;101392.69;3609735;39;20063;-65
2022/09/23 08:22:04;;;;;;;9.40;6.22;;;;;;;15.23;59.00;101399.41;3608785;39;20062;-64
2022/09/23 08:24:31;;;;;;;7.13;5.88;;;;;;;15.29;60.40;101385.44;3611616;39;20406;-64
2022/09/23 08:26:56;;;;;;;7.68;5.57;;;;;;;15.44;60.08;101397.84;3602341;39;20047;-64
2022/09/23 08:29:24;;;;;;;11.18;6.88;;;;;;;15.54;60.86;101392.63;3611010;39;20304;-63
2022/09/23 08:31:51;;;;;;;9.98;5.90;;;;;;;15.61;59.94;101393.03;3609284;39;20058;-64
2022/09/23 08:34:19;;;;;;;10.70;5.57;;;;;;;15.69;58.35;101386.09;3610577;39;20039;-65
2022/09/23 08:36:46;;;;;;;12.23;6.25;;;;;;;15.80;59.62;101382.59;3600689;39;20093;-65
2022/09/23 08:39:15;;;;;;;10.23;5.82;;;;;;;15.88;59.48;101391.00;3610065;39;20042;-65
2022/09/23 08:41:55;;;;;;;10.80;6.03;;;;;;;15.95;58.02;101392.28;3608572;39;20055;-65
2022/09/23 08:44:31;;;;;;;8.18;5.78;;;;;;;14.89;57.56;101208.78;3609160;39;20401;-64
2022/09/23 08:47:26;;;;;;;10.80;6.03;;;;;;;16.07;57.60;101390.47;3608385;39;20059;-64
2022/09/23 08:50:06;;;;;;;8.65;4.95;;;;;;;15.70;57.14;101297.53;3606851;39;20125;-65
2022/09/23 08:52:58;;;;;;;8.13;5.85;;;;;;;16.36;57.55;101385.53;3607655;39;20055;-65
2022/09/23 08:55:43;;;;;;;10.48;5.88;;;;;;;16.40;58.68;101381.59;3609166;39;20055;-64
2022/09/23 08:58:33;;;;;;;7.32;4.95;;;;;;;16.51;56.90;101398.91;3604552;39;20086;-64
2022/09/23 09:01:43;;;;;;;9.10;6.00;;;;;;;16.63;57.17;101387.09;3606259;39;20053;-64
2022/09/23 09:05:06;;;;;;;11.95;5.65;;;;;;;16.68;56.37;101363.13;3599836;39;20344;-65
2022/09/23 09:07:39;;;;;;;10.40;5.70;;;;;;;16.94;56.63;101386.44;3573526;40;20073;-64
2022/09/23 09:10:24;;;;;;;8.75;5.57;;;;;;;17.11;54.64;101386.91;3604696;39;20098;-65
2022/09/23 09:13:08;;;;;;;8.88;5.63;;;;;;;17.28;54.15;101377.41;3607101;39;20054;-64
2022/09/23 09:16:04;;;;;;;9.85;4.90;;;;;;;17.35;52.87;101376.78;3608532;39;20059;-64
2022/09/23 09:18:47;;;;;;;8.80;4.93;;;;;;;17.48;54.29;101383.94;3605907;39;20066;-64
2022/09/23 09:21:14;;;;;;;7.78;4.32;;;;;;;17.10;52.30;101301.00;3604474;39;20519;-65
2022/09/23 09:23:56;;;;;;;11.18;4.53;;;;;;;17.70;52.61;101370.31;3606137;39;20054;-64
2022/09/23 09:26:33;;;;;;;5.90;4.20;;;;;;;17.82;51.13;101374.75;3610015;39;20057;-65
2022/09/23 09:29:21;;;;;;;11.65;4.18;;;;;;;17.90;50.86;101367.78;3613631;39;20058;-65
2022/09/23 09:31:49;;;;;;;9.93;4.47;;;;;;;17.92;51.15;101371.22;3604950;39;20333;-64
2022/09/23 09:34:36;;;;;;;9.07;3.90;;;;;;;17.97;51.89;101369.00;3611339;39;20043;-65
2022/09/23 09:37:12;;;;;;;7.07;3.60;;;;;;;18.15;50.08;101364.72;3616814;39;20047;-64
2022/09/23 09:39:38;;;;;;;6.53;3.78;;;;;;;17.12;50.89;101171.31;3610826;39;20051;-64
2022/09/23 09:42:05;;;;;;;7.20;3.97;;;;;;;18.27;50.54;101343.78;3612647;39;20400;-65
2022/09/23 09:44:57;;;;;;;7.93;4.15;;;;;;;18.56;48.75;101365.75;3606204;39;20383;-65
2022/09/23 09:47:47;;;;;;;9.93;4.65;;;;;;;18.74;50.75;101361.44;3610420;39;20051;-65
2022/09/23 09:50:19;;;;;;;6.63;4.13;;;;;;;18.97;48.81;101361.28;3608769;39;20077;-64
2022/09/23 09:52:45;;;;;;;8.48;4.03;;;;;;;19.26;48.00;101364.13;3612690;39;20046;-65
2022/09/23 09:55:13;;;;;;;11.77;4.07;;;;;;;19.48;47.49;101360.31;3612535;39;20049;-65
2022/09/23 09:57:48;;;;;;;6.15;3.67;;;;;;;19.52;46.78;101353.56;3612847;39;20394;-65
2022/09/23 10:00:24;;;;;;;5.00;3.30;;;;;;;19.61;49.02;101355.44;3611346;39;20057;-65
2022/09/23 10:03:00;;;;;;;6.78;3.22;;;;;;;19.76;47.99;101355.06;3610288;39;20066;-64
2022/09/23 10:05:49;;;;;;;5.90;4.03;;;;;;;19.76;48.85;101346.88;3611156;39;20043;-65
2022/09/23 10:08:18;;;;;;;5.03;3.42;;;;;;;19.86;48.75;101345.03;3610588;39;20062;-65
2022/09/23 10:11:02;;;;;;;5.50;3.30;;;;;;;19.43;47.02;101275.31;3613590;39;20044;-65
2022/09/23 10:13:30;;;;;;;8.65;3.60;;;;;;;19.89;47.66;101347.50;3612800;39;20050;-64
2022/09/23 10:16:00;;;;;;;7.57;3.33;;;;;;;19.89;47.24;101345.63;3611670;39;20055;-64
2022/09/23 10:18:34;;;;;;;7.35;5.05;;;;;;;19.82;46.85;101336.28;3607877;39;20342;-64
2022/09/23 10:21:16;;;;;;;6.38;4.88;;;;;;;19.88;46.46;101343.00;3605645;39;20101;-64
2022/09/23 10:23:53;;;;;;;5.32;3.78;;;;;;;19.90;46.17;101335.56;3610504;39;20476;-65
2022/09/23 10:26:42;;;;;;;7.25;4.10;;;;;;;19.98;45.13;101343.91;3612872;39;20047;-65
2022/09/23 10:29:31;;;;;;;5.43;4.00;;;;;;;;;;3611827;39;20051;-65
2022/09/23 10:32:33;;;;;;;6.07;4.03;;;;;;;19.92;44.86;101339.00;3606028;39;20374;-65
2022/09/23 10:35:08;;;;;;;5.88;4.07;;;;;;;19.81;44.33;101339.13;3604338;39;20058;-65
2022/09/23 10:37:40;;;;;;;6.13;4.28;;;;;;;19.23;45.00;101252.63;3609858;39;20081;-65
2022/09/23 10:46:40;;;;;;;6.97;4.18;;;;;;;19.62;44.86;101343.53;3605275;39;20046;-65
2022/09/23 10:49:34;;;;;;;8.63;4.47;;;;;;;19.62;45.73;101339.94;3606307;39;20066;-64
2022/09/23 10:52:08;;;;;;;7.97;4.35;;;;;;;19.63;45.38;101336.19;3605907;39;20062;-64
2022/09/23 10:55:30;;;;;;;7.10;3.90;;;;;;;19.62;45.84;101339.94;3609778;39;20129;-64
2022/09/23 10:58:18;;;;;;;6.13;3.75;;;;;;;19.70;46.06;101338.28;3605963;39;20385;-64
2022/09/23 11:01:38;;;;;;;7.22;4.13;;;;;;;19.73;45.19;101330.78;3608607;39;20386;-64
2022/09/23 11:04:53;;;;;;;12.23;4.00;;;;;;;19.64;47.06;101314.28;3593691;39;20049;-65
2022/09/23 11:07:52;;;;;;;11.40;4.82;;;;;;;19.78;47.59;101326.63;3611180;39;20051;-64
2022/09/23 11:10:58;;;;;;;6.63;3.90;;;;;;;19.87;47.37;101331.25;3604825;39;20393;-65
2022/09/23 11:14:16;;;;;;;7.55;3.78;;;;;;;19.82;46.67;101321.75;3610206;39;20047;-65
2022/09/23 11:17:28;;;;;;;6.85;3.83;;;;;;;19.44;46.15;101253.38;3607530;39;20091;-65
2022/09/23 11:20:21;;;;;;;8.15;3.63;;;;;;;19.99;46.70;101318.31;3610300;39;20043;-65
2022/09/23 11:23:06;;;;;;;6.28;3.72;;;;;;;19.95;47.37;101300.53;3608993;39;20119;-65
2022/09/23 11:26:16;;;;;;;5.60;3.75;;;;;;;20.18;44.55;101321.03;3608639;39;20387;-64
2022/09/23 11:29:15;;;;;;;5.45;3.40;;;;;;;20.15;44.73;101318.59;3611599;39;20055;-64
2022/09/23 11:32:14;;;;;;;5.97;3.35;;;;;;;20.26;44.71;101314.84;3606615;39;20063;-65
2022/09/23 11:35:30;;;;;;;6.43;3.63;;;;;;;20.29;43.94;101310.97;3609049;39;20075;-66
2022/09/23 11:38:05;;;;;;;10.60;3.45;;;;;;;20.37;44.13;101313.84;3612585;39;20075;-64
2022/09/23 11:40:36;;;;;;;8.23;3.83;;;;;;;20.36;44.82;101303.91;3607932;39;20055;-64
2022/09/23 11:43:32;;;;;;;6.57;3.40;;;;;;;20.43;44.48;101313.25;3609047;39;20058;-64
2022/09/23 11:46:12;;;;;;;4.80;2.97;;;;;;;20.47;43.60;101311.06;3611089;39;20369;-65
2022/09/23 11:49:09;;;;;;;6.65;3.42;;;;;;;20.50;44.41;101306.19;3600405;39;20050;-65
2022/09/23 11:52:18;;;;;;;7.22;3.10;;;;;;;20.68;44.42;101308.16;3609610;39;20219;-64
2022/09/23 11:55:23;;;;;;;6.78;3.20;;;;;;;20.86;43.29;101300.91;3610899;39;20075;-65
2022/09/23 11:58:10;;;;;;;5.32;3.20;;;;;;;21.07;41.70;101309.72;3608524;39;20365;-65
2022/09/23 12:00:51;;;;;;;4.68;2.60;;;;;;;21.21;42.56;101299.28;3605017;39;20393;-64
2022/09/23 12:03:31;;;;;;;4.63;2.97;;;;;;;21.08;40.34;101314.19;3609025;39;20055;-64
2022/09/23 12:06:08;;;;;;;7.03;2.70;;;;;;;20.97;42.24;101297.13;3602352;39;20059;-64
2022/09/23 12:08:36;;;;;;;4.57;2.55;;;;;;;20.72;42.20;101288.59;3609945;39;20098;-66
2022/09/23 12:11:22;;;;;;;6.32;2.58;;;;;;;20.54;43.13;101296.69;3607765;39;20086;-64
2022/09/23 12:14:10;;;;;;;3.40;2.45;;;;;;;20.46;44.39;101299.28;3610209;39;20048;-65